GFA164 OERK-OPLA
Flight info
| Callsign | GFA164 |
|---|---|
| Flight time | 4h 7m |
| Altitude | 37000 |
| Route | AMBAG DCT 21N051E 21N053E DCT MIDGU M717 PUTSO N685 LAKLU G216 MCT T500 VUSET R462 EGTAL B505 PG G214 MIMAL |
| Aircraft | A321/M-SDE3FGHIRWY/LB1 |
Departure
| Time | 2026-04-23 16:02 |
|---|---|
| Airport | King Khalid International Airport (OERK) |
Arrival
| Time | 2026-04-23 20:09 |
|---|---|
| Airport | Allama Iqbal International Airport (OPLA) |
| Time | Latitude | Longitude | Altitude | Speed | Heading |
|---|---|---|---|---|---|
| 2026-04-23 15:37 | 24.95842 | 46.70535 | 2039 ft | 0 kts | 310° |
| 2026-04-23 15:40 | 24.95842 | 46.70536 | 2030 ft | 0 kts | 310° |
| 2026-04-23 15:44 | 24.95841 | 46.70536 | 2030 ft | 0 kts | 310° |
| 2026-04-23 15:50 | 24.95834 | 46.70546 | 2038 ft | 8 kts | 303° |
| 2026-04-23 15:50 | 24.95824 | 46.70565 | 2036 ft | 8 kts | 285° |
| 2026-04-23 15:50 | 24.95821 | 46.70586 | 2034 ft | 8 kts | 265° |
| 2026-04-23 15:51 | 24.95825 | 46.70608 | 2038 ft | 8 kts | 246° |
| 2026-04-23 15:51 | 24.95835 | 46.70627 | 2035 ft | 8 kts | 232° |
| 2026-04-23 15:51 | 24.95848 | 46.70644 | 2039 ft | 8 kts | 221° |
| 2026-04-23 15:51 | 24.95864 | 46.70657 | 2037 ft | 8 kts | 211° |
| 2026-04-23 15:52 | 24.95882 | 46.70668 | 2039 ft | 8 kts | 196° |
| 2026-04-23 15:52 | 24.95899 | 46.70671 | 2036 ft | 8 kts | 162° |
| 2026-04-23 15:52 | 24.95904 | 46.70669 | 2035 ft | 30 kts | 151° |
| 2026-04-23 15:55 | 24.95890 | 46.70677 | 2036 ft | 3 kts | 151° |
| 2026-04-23 15:55 | 24.95864 | 46.70694 | 2033 ft | 6 kts | 150° |
| 2026-04-23 15:55 | 24.95843 | 46.70736 | 2033 ft | 6 kts | 80° |
| 2026-04-23 15:56 | 24.95869 | 46.70789 | 2036 ft | 9 kts | 65° |
| 2026-04-23 15:56 | 24.95903 | 46.70854 | 2034 ft | 11 kts | 59° |
| 2026-04-23 15:56 | 24.95939 | 46.70931 | 2035 ft | 12 kts | 78° |
| 2026-04-23 15:56 | 24.95888 | 46.70996 | 2034 ft | 13 kts | 150° |
| 2026-04-23 15:57 | 24.95807 | 46.71046 | 2038 ft | 14 kts | 150° |
| 2026-04-23 15:57 | 24.95719 | 46.71103 | 2037 ft | 15 kts | 149° |
| 2026-04-23 15:57 | 24.95623 | 46.71163 | 2037 ft | 16 kts | 151° |
| 2026-04-23 15:57 | 24.95520 | 46.71228 | 2040 ft | 18 kts | 149° |
| 2026-04-23 15:58 | 24.95412 | 46.71299 | 2039 ft | 19 kts | 149° |
| 2026-04-23 15:58 | 24.95294 | 46.71371 | 2034 ft | 20 kts | 151° |
| 2026-04-23 15:58 | 24.95170 | 46.71449 | 2037 ft | 21 kts | 150° |
| 2026-04-23 15:58 | 24.95041 | 46.71531 | 2040 ft | 22 kts | 150° |
| 2026-04-23 15:59 | 24.94906 | 46.71618 | 2040 ft | 23 kts | 149° |
| 2026-04-23 15:59 | 24.94766 | 46.71707 | 2037 ft | 24 kts | 150° |
| 2026-04-23 15:59 | 24.94619 | 46.71798 | 2037 ft | 25 kts | 150° |
| 2026-04-23 15:59 | 24.94485 | 46.71884 | 2038 ft | 16 kts | 149° |
| 2026-04-23 16:00 | 24.94428 | 46.71949 | 2045 ft | 12 kts | 84° |
| 2026-04-23 16:00 | 24.94466 | 46.72030 | 2038 ft | 12 kts | 60° |
| 2026-04-23 16:00 | 24.94494 | 46.72086 | 2040 ft | 9 kts | 62° |
| 2026-04-23 16:00 | 24.94525 | 46.72153 | 2046 ft | 11 kts | 63° |
| 2026-04-23 16:01 | 24.94571 | 46.72170 | 2039 ft | 7 kts | 341° |
| 2026-04-23 16:01 | 24.94625 | 46.72136 | 2042 ft | 19 kts | 330° |
| 2026-04-23 16:01 | 24.95021 | 46.71888 | 2041 ft | 109 kts | 330° |
| 2026-04-23 16:01 | 24.95900 | 46.71337 | 2097 ft | 173 kts | 333° |
| 2026-04-23 16:02 | 24.96906 | 46.70683 | 3234 ft | 167 kts | 335° |
| 2026-04-23 16:02 | 24.97935 | 46.70060 | 4086 ft | 166 kts | 342° |
| 2026-04-23 16:02 | 24.99041 | 46.69589 | 4494 ft | 179 kts | 347° |
| 2026-04-23 16:02 | 25.00287 | 46.69105 | 4731 ft | 201 kts | 344° |
| 2026-04-23 16:03 | 25.01680 | 46.68568 | 4935 ft | 223 kts | 343° |
| 2026-04-23 16:03 | 25.03219 | 46.67974 | 5094 ft | 246 kts | 343° |
| 2026-04-23 16:03 | 25.04911 | 46.67317 | 5247 ft | 270 kts | 342° |
| 2026-04-23 16:03 | 25.06747 | 46.66596 | 5670 ft | 287 kts | 341° |
| 2026-04-23 16:04 | 25.08714 | 46.66033 | 6287 ft | 296 kts | 353° |
| 2026-04-23 16:04 | 25.10788 | 46.66086 | 6937 ft | 302 kts | 11° |
| 2026-04-23 16:04 | 25.12811 | 46.66743 | 7606 ft | 306 kts | 19° |
| 2026-04-23 16:04 | 25.14830 | 46.67517 | 8333 ft | 308 kts | 20° |
| 2026-04-23 16:05 | 25.16106 | 46.68203 | 8807 ft | 310 kts | 33° |
| 2026-04-23 16:05 | 25.18135 | 46.70452 | 9703 ft | 314 kts | 60° |
| 2026-04-23 16:05 | 25.18955 | 46.72684 | 10251 ft | 319 kts | 79° |
| 2026-04-23 16:05 | 25.19130 | 46.75191 | 10389 ft | 338 kts | 92° |
| 2026-04-23 16:06 | 25.19112 | 46.77871 | 10521 ft | 360 kts | 93° |
| 2026-04-23 16:06 | 25.19092 | 46.80712 | 10642 ft | 380 kts | 92° |
| 2026-04-23 16:06 | 25.19066 | 46.83683 | 10870 ft | 393 kts | 94° |
| 2026-04-23 16:06 | 25.18718 | 46.86684 | 11338 ft | 395 kts | 105° |
| 2026-04-23 16:07 | 25.17889 | 46.89574 | 11817 ft | 396 kts | 116° |
| 2026-04-23 16:07 | 25.16629 | 46.92281 | 12314 ft | 398 kts | 123° |
| 2026-04-23 16:07 | 25.15277 | 46.94964 | 12834 ft | 402 kts | 123° |
| 2026-04-23 16:07 | 25.13913 | 46.97672 | 13328 ft | 406 kts | 123° |
| 2026-04-23 16:08 | 25.12532 | 47.00418 | 13777 ft | 412 kts | 123° |
| 2026-04-23 16:08 | 25.11139 | 47.03198 | 14226 ft | 416 kts | 123° |
| 2026-04-23 16:08 | 25.09738 | 47.05999 | 14688 ft | 418 kts | 123° |
| 2026-04-23 16:08 | 25.08330 | 47.08817 | 15176 ft | 421 kts | 123° |
| 2026-04-23 16:09 | 25.06909 | 47.11653 | 15656 ft | 424 kts | 123° |
| 2026-04-23 16:09 | 25.05478 | 47.14504 | 16116 ft | 426 kts | 123° |
| 2026-04-23 16:09 | 25.04038 | 47.17374 | 16574 ft | 429 kts | 123° |
| 2026-04-23 16:09 | 25.02585 | 47.20262 | 17049 ft | 432 kts | 123° |
| 2026-04-23 16:10 | 25.01123 | 47.23164 | 17508 ft | 435 kts | 123° |
| 2026-04-23 16:10 | 24.99650 | 47.26084 | 17955 ft | 437 kts | 123° |
| 2026-04-23 16:10 | 24.98165 | 47.29024 | 18380 ft | 440 kts | 123° |
| 2026-04-23 16:10 | 24.96673 | 47.31981 | 18756 ft | 443 kts | 123° |
| 2026-04-23 16:11 | 24.95167 | 47.34959 | 19085 ft | 447 kts | 122° |
| 2026-04-23 16:11 | 24.93651 | 47.37960 | 19457 ft | 450 kts | 123° |
| 2026-04-23 16:11 | 24.91930 | 47.40834 | 19823 ft | 449 kts | 131° |
| 2026-04-23 16:11 | 24.89834 | 47.43365 | 20198 ft | 447 kts | 140° |
| 2026-04-23 16:12 | 24.87574 | 47.45735 | 20570 ft | 450 kts | 140° |
| 2026-04-23 16:12 | 24.85303 | 47.48118 | 20950 ft | 453 kts | 140° |
| 2026-04-23 16:12 | 24.83018 | 47.50517 | 21306 ft | 455 kts | 140° |
| 2026-04-23 16:12 | 24.80718 | 47.52934 | 21644 ft | 458 kts | 140° |
| 2026-04-23 16:13 | 24.78413 | 47.55364 | 22021 ft | 460 kts | 140° |
| 2026-04-23 16:13 | 24.73766 | 47.60265 | 22754 ft | 465 kts | 140° |
| 2026-04-23 16:13 | 24.71419 | 47.62731 | 23081 ft | 468 kts | 140° |
| 2026-04-23 16:14 | 24.69055 | 47.65211 | 23426 ft | 471 kts | 140° |
| 2026-04-23 16:14 | 24.66712 | 47.67670 | 23726 ft | 474 kts | 140° |
| 2026-04-23 16:14 | 24.64289 | 47.70209 | 24030 ft | 476 kts | 140° |
| 2026-04-23 16:14 | 24.61882 | 47.72730 | 24301 ft | 479 kts | 140° |
| 2026-04-23 16:15 | 24.59403 | 47.75092 | 24553 ft | 478 kts | 148° |
| 2026-04-23 16:15 | 24.56595 | 47.77008 | 24839 ft | 474 kts | 158° |
| 2026-04-23 16:15 | 24.53560 | 47.78379 | 25124 ft | 470 kts | 167° |
| 2026-04-23 16:15 | 24.50386 | 47.79180 | 25397 ft | 466 kts | 177° |
| 2026-04-23 16:16 | 24.47169 | 47.79412 | 25687 ft | 462 kts | 186° |
| 2026-04-23 16:16 | 24.43946 | 47.79350 | 25962 ft | 464 kts | 186° |
| 2026-04-23 16:16 | 24.40709 | 47.79286 | 26215 ft | 466 kts | 186° |
| 2026-04-23 16:16 | 24.37462 | 47.79227 | 26476 ft | 468 kts | 186° |
| 2026-04-23 16:17 | 24.34200 | 47.79171 | 26727 ft | 470 kts | 186° |
| 2026-04-23 16:17 | 24.30927 | 47.79117 | 26960 ft | 471 kts | 186° |
| 2026-04-23 16:17 | 24.27642 | 47.79062 | 27188 ft | 473 kts | 186° |
| 2026-04-23 16:17 | 24.24345 | 47.79003 | 27399 ft | 475 kts | 186° |
| 2026-04-23 16:18 | 24.21042 | 47.78944 | 27695 ft | 474 kts | 187° |
| 2026-04-23 16:18 | 24.17746 | 47.78886 | 28007 ft | 474 kts | 187° |
| 2026-04-23 16:18 | 24.14455 | 47.78826 | 28313 ft | 473 kts | 187° |
| 2026-04-23 16:18 | 24.11165 | 47.78766 | 28609 ft | 473 kts | 187° |
| 2026-04-23 16:19 | 24.07872 | 47.78708 | 28915 ft | 472 kts | 187° |
| 2026-04-23 16:19 | 24.04588 | 47.78651 | 29219 ft | 472 kts | 187° |
| 2026-04-23 16:19 | 24.01304 | 47.78594 | 29528 ft | 472 kts | 187° |
| 2026-04-23 16:19 | 23.98027 | 47.78535 | 29839 ft | 471 kts | 187° |
| 2026-04-23 16:20 | 23.94747 | 47.78475 | 30120 ft | 471 kts | 188° |
| 2026-04-23 16:20 | 23.91476 | 47.78417 | 30388 ft | 470 kts | 188° |
| 2026-04-23 16:20 | 23.88206 | 47.78362 | 30652 ft | 469 kts | 188° |
| 2026-04-23 16:20 | 23.84949 | 47.78306 | 30937 ft | 468 kts | 188° |
| 2026-04-23 16:21 | 23.81702 | 47.78248 | 31233 ft | 466 kts | 188° |
| 2026-04-23 16:21 | 23.78465 | 47.78190 | 31522 ft | 465 kts | 188° |
| 2026-04-23 16:21 | 23.75235 | 47.78132 | 31807 ft | 463 kts | 188° |
| 2026-04-23 16:21 | 23.72013 | 47.78077 | 32066 ft | 462 kts | 188° |
| 2026-04-23 16:22 | 23.68799 | 47.78023 | 32322 ft | 462 kts | 188° |
| 2026-04-23 16:22 | 23.65591 | 47.77970 | 32586 ft | 461 kts | 188° |
| 2026-04-23 16:22 | 23.62387 | 47.77915 | 32873 ft | 460 kts | 188° |
| 2026-04-23 16:22 | 23.59195 | 47.77860 | 33170 ft | 458 kts | 188° |
| 2026-04-23 16:23 | 23.56014 | 47.77805 | 33454 ft | 457 kts | 188° |
| 2026-04-23 16:23 | 23.52844 | 47.77748 | 33737 ft | 455 kts | 188° |
| 2026-04-23 16:23 | 23.49682 | 47.77689 | 34005 ft | 454 kts | 188° |
| 2026-04-23 16:23 | 23.46525 | 47.77629 | 34209 ft | 454 kts | 187° |
| 2026-04-23 16:24 | 23.43367 | 47.77571 | 34398 ft | 454 kts | 188° |
| 2026-04-23 16:24 | 23.40206 | 47.77515 | 34591 ft | 454 kts | 188° |
| 2026-04-23 16:24 | 23.37045 | 47.77457 | 34776 ft | 455 kts | 188° |
| 2026-04-23 16:24 | 23.34951 | 47.77418 | 34907 ft | 455 kts | 188° |
| 2026-04-23 16:25 | 23.31786 | 47.77360 | 35109 ft | 455 kts | 188° |
| 2026-04-23 16:25 | 23.28619 | 47.77306 | 35303 ft | 455 kts | 188° |
| 2026-04-23 16:25 | 23.25452 | 47.77256 | 35507 ft | 455 kts | 188° |
| 2026-04-23 16:25 | 23.22280 | 47.77203 | 35665 ft | 456 kts | 188° |
| 2026-04-23 16:26 | 23.19103 | 47.77147 | 35825 ft | 457 kts | 188° |
| 2026-04-23 16:26 | 23.15909 | 47.77199 | 36006 ft | 464 kts | 181° |
| 2026-04-23 16:26 | 23.12705 | 47.77883 | 36184 ft | 476 kts | 169° |
| 2026-04-23 16:26 | 23.09624 | 47.79318 | 36330 ft | 489 kts | 156° |
| 2026-04-23 16:27 | 23.06831 | 47.81498 | 36496 ft | 502 kts | 142° |
| 2026-04-23 16:27 | 23.04491 | 47.84353 | 36633 ft | 512 kts | 129° |
| 2026-04-23 16:27 | 23.02471 | 47.87552 | 36747 ft | 513 kts | 128° |
| 2026-04-23 16:27 | 23.00463 | 47.90757 | 36867 ft | 515 kts | 128° |
| 2026-04-23 16:28 | 22.96404 | 47.97217 | 36868 ft | 519 kts | 128° |
| 2026-04-23 16:28 | 22.92322 | 48.03686 | 36877 ft | 520 kts | 129° |
| 2026-04-23 16:29 | 22.88239 | 48.10147 | 36860 ft | 519 kts | 128° |
| 2026-04-23 16:29 | 22.84155 | 48.16611 | 36860 ft | 520 kts | 128° |
| 2026-04-23 16:30 | 22.80061 | 48.23080 | 36874 ft | 521 kts | 129° |
| 2026-04-23 16:30 | 22.75954 | 48.29543 | 36874 ft | 521 kts | 129° |
| 2026-04-23 16:31 | 22.71847 | 48.36020 | 36877 ft | 522 kts | 129° |
| 2026-04-23 16:31 | 22.67733 | 48.42497 | 36863 ft | 522 kts | 129° |
| 2026-04-23 16:32 | 22.63632 | 48.48942 | 36867 ft | 522 kts | 129° |
| 2026-04-23 16:32 | 22.59504 | 48.55419 | 36870 ft | 523 kts | 129° |
| 2026-04-23 16:33 | 22.55372 | 48.61889 | 36868 ft | 523 kts | 129° |
| 2026-04-23 16:33 | 22.51237 | 48.68362 | 36852 ft | 523 kts | 129° |
| 2026-04-23 16:34 | 22.47096 | 48.74837 | 36854 ft | 524 kts | 129° |
| 2026-04-23 16:34 | 22.42953 | 48.81320 | 36856 ft | 524 kts | 129° |
| 2026-04-23 16:35 | 22.38803 | 48.87797 | 36864 ft | 524 kts | 129° |
| 2026-04-23 16:35 | 22.34639 | 48.94267 | 36847 ft | 524 kts | 129° |
| 2026-04-23 16:36 | 22.30477 | 49.00735 | 36859 ft | 525 kts | 129° |
| 2026-04-23 16:36 | 22.26316 | 49.07212 | 36862 ft | 525 kts | 129° |
| 2026-04-23 16:37 | 22.22150 | 49.13676 | 36858 ft | 525 kts | 129° |
| 2026-04-23 16:37 | 22.17980 | 49.20146 | 36855 ft | 525 kts | 129° |
| 2026-04-23 16:38 | 22.13837 | 49.26572 | 36859 ft | 525 kts | 129° |
| 2026-04-23 16:38 | 22.09662 | 49.33040 | 36853 ft | 525 kts | 129° |
| 2026-04-23 16:39 | 22.05480 | 49.39503 | 36860 ft | 526 kts | 129° |
| 2026-04-23 16:39 | 22.01292 | 49.45951 | 36860 ft | 525 kts | 129° |
| 2026-04-23 16:40 | 21.97116 | 49.52391 | 36857 ft | 524 kts | 129° |
| 2026-04-23 16:40 | 21.92944 | 49.58824 | 36863 ft | 524 kts | 129° |
| 2026-04-23 16:41 | 21.88776 | 49.65253 | 36856 ft | 523 kts | 129° |
| 2026-04-23 16:41 | 21.84599 | 49.71664 | 36846 ft | 523 kts | 129° |
| 2026-04-23 16:42 | 21.80412 | 49.78066 | 36857 ft | 523 kts | 129° |
| 2026-04-23 16:42 | 21.76225 | 49.84469 | 36854 ft | 523 kts | 129° |
| 2026-04-23 16:43 | 21.72042 | 49.90874 | 36853 ft | 523 kts | 129° |
| 2026-04-23 16:43 | 21.67859 | 49.97284 | 36841 ft | 523 kts | 129° |
| 2026-04-23 16:44 | 21.63671 | 50.03686 | 36846 ft | 524 kts | 129° |
| 2026-04-23 16:44 | 21.59474 | 50.10083 | 36844 ft | 524 kts | 129° |
| 2026-04-23 16:45 | 21.55270 | 50.16472 | 36843 ft | 524 kts | 129° |
| 2026-04-23 16:45 | 21.51067 | 50.22864 | 36831 ft | 524 kts | 129° |
| 2026-04-23 16:46 | 21.46863 | 50.29255 | 36835 ft | 524 kts | 129° |
| 2026-04-23 16:46 | 21.42654 | 50.35648 | 36835 ft | 524 kts | 129° |
| 2026-04-23 16:47 | 21.38438 | 50.42034 | 36833 ft | 524 kts | 129° |
| 2026-04-23 16:47 | 21.34228 | 50.48427 | 36815 ft | 524 kts | 129° |
| 2026-04-23 16:48 | 21.30014 | 50.54809 | 36827 ft | 524 kts | 129° |
| 2026-04-23 16:48 | 21.25792 | 50.61183 | 36833 ft | 524 kts | 129° |
| 2026-04-23 16:49 | 21.21569 | 50.67553 | 36834 ft | 524 kts | 129° |
| 2026-04-23 16:49 | 21.17348 | 50.73922 | 36830 ft | 524 kts | 129° |
| 2026-04-23 16:50 | 21.13122 | 50.80283 | 36825 ft | 524 kts | 129° |
| 2026-04-23 16:50 | 21.08893 | 50.86635 | 36827 ft | 524 kts | 129° |
| 2026-04-23 16:51 | 21.04669 | 50.92987 | 36829 ft | 524 kts | 128° |
| 2026-04-23 16:51 | 21.01311 | 50.99927 | 36827 ft | 529 kts | 109° |
| 2026-04-23 16:52 | 21.00047 | 51.07659 | 36824 ft | 529 kts | 89° |
| 2026-04-23 16:52 | 21.00112 | 51.15520 | 36822 ft | 529 kts | 88° |
| 2026-04-23 16:53 | 21.00138 | 51.23393 | 36823 ft | 529 kts | 89° |
| 2026-04-23 16:53 | 21.00154 | 51.31269 | 36825 ft | 529 kts | 89° |
| 2026-04-23 16:54 | 21.00179 | 51.39145 | 36832 ft | 529 kts | 88° |
| 2026-04-23 16:54 | 21.00209 | 51.47021 | 36831 ft | 529 kts | 88° |
| 2026-04-23 16:55 | 21.00233 | 51.54895 | 36830 ft | 529 kts | 88° |
| 2026-04-23 16:55 | 21.00256 | 51.62767 | 36834 ft | 529 kts | 88° |
| 2026-04-23 16:56 | 21.00275 | 51.70644 | 36836 ft | 529 kts | 88° |
| 2026-04-23 16:56 | 21.00283 | 51.78515 | 36834 ft | 529 kts | 88° |
| 2026-04-23 16:57 | 21.00287 | 51.86388 | 36835 ft | 529 kts | 88° |
| 2026-04-23 16:57 | 21.00288 | 51.94260 | 36835 ft | 529 kts | 88° |
| 2026-04-23 16:58 | 21.00289 | 52.02130 | 36837 ft | 529 kts | 88° |
| 2026-04-23 16:58 | 21.00284 | 52.09998 | 36824 ft | 529 kts | 88° |
| 2026-04-23 16:59 | 21.00277 | 52.17813 | 36835 ft | 528 kts | 88° |
| 2026-04-23 16:59 | 21.00269 | 52.25676 | 36837 ft | 528 kts | 88° |
| 2026-04-23 17:00 | 21.00267 | 52.33536 | 36842 ft | 528 kts | 88° |
| 2026-04-23 17:00 | 21.00255 | 52.41394 | 36843 ft | 528 kts | 88° |
| 2026-04-23 17:01 | 21.00228 | 52.49247 | 36841 ft | 528 kts | 89° |
| 2026-04-23 17:01 | 21.00199 | 52.57102 | 36844 ft | 528 kts | 88° |
| 2026-04-23 17:02 | 21.00177 | 52.64953 | 36841 ft | 528 kts | 88° |
| 2026-04-23 17:02 | 21.00150 | 52.72804 | 36840 ft | 527 kts | 89° |
| 2026-04-23 17:03 | 21.00102 | 52.80648 | 36841 ft | 527 kts | 89° |
| 2026-04-23 17:03 | 21.00057 | 52.88498 | 36842 ft | 527 kts | 89° |
| 2026-04-23 17:04 | 21.00373 | 52.96313 | 36846 ft | 523 kts | 77° |
| 2026-04-23 17:04 | 21.02552 | 53.03631 | 36847 ft | 512 kts | 58° |
| 2026-04-23 17:05 | 21.06277 | 53.10034 | 36847 ft | 506 kts | 50° |
| 2026-04-23 17:05 | 21.10184 | 53.16301 | 36844 ft | 506 kts | 51° |
| 2026-04-23 17:06 | 21.14082 | 53.22575 | 36841 ft | 506 kts | 51° |
| 2026-04-23 17:06 | 21.17978 | 53.28863 | 36849 ft | 506 kts | 51° |
| 2026-04-23 17:07 | 21.21877 | 53.35147 | 36850 ft | 506 kts | 51° |
| 2026-04-23 17:07 | 21.25780 | 53.41425 | 36848 ft | 506 kts | 51° |
| 2026-04-23 17:08 | 21.29675 | 53.47708 | 36849 ft | 506 kts | 51° |
| 2026-04-23 17:08 | 21.32914 | 53.52933 | 36850 ft | 506 kts | 51° |
| 2026-04-23 17:09 | 21.37431 | 53.60244 | 36850 ft | 506 kts | 51° |
| 2026-04-23 17:09 | 21.41314 | 53.66544 | 36855 ft | 506 kts | 51° |
| 2026-04-23 17:10 | 21.45197 | 53.72846 | 36848 ft | 506 kts | 51° |
| 2026-04-23 17:10 | 21.48451 | 53.78129 | 36847 ft | 506 kts | 51° |
| 2026-04-23 17:11 | 21.52336 | 53.84432 | 36846 ft | 506 kts | 51° |
| 2026-04-23 17:11 | 21.56218 | 53.90734 | 36848 ft | 506 kts | 51° |
| 2026-04-23 17:12 | 21.60093 | 53.97044 | 36848 ft | 506 kts | 51° |
| 2026-04-23 17:12 | 21.63960 | 54.03358 | 36853 ft | 506 kts | 51° |
| 2026-04-23 17:13 | 21.67829 | 54.09680 | 36853 ft | 506 kts | 51° |
| 2026-04-23 17:13 | 21.71696 | 54.15998 | 36852 ft | 506 kts | 51° |
| 2026-04-23 17:14 | 21.75559 | 54.22315 | 36855 ft | 506 kts | 51° |
| 2026-04-23 17:14 | 21.79421 | 54.28643 | 36851 ft | 506 kts | 51° |
| 2026-04-23 17:15 | 21.83277 | 54.34970 | 36850 ft | 505 kts | 51° |
| 2026-04-23 17:15 | 21.87127 | 54.41299 | 36854 ft | 505 kts | 51° |
| 2026-04-23 17:16 | 21.90982 | 54.47628 | 36848 ft | 506 kts | 51° |
| 2026-04-23 17:16 | 21.94833 | 54.53961 | 36857 ft | 506 kts | 51° |
| 2026-04-23 17:17 | 21.98681 | 54.60304 | 36853 ft | 506 kts | 51° |
| 2026-04-23 17:17 | 22.02501 | 54.66600 | 36853 ft | 506 kts | 51° |
| 2026-04-23 17:18 | 22.08276 | 54.76121 | 36852 ft | 506 kts | 51° |
| 2026-04-23 17:19 | 22.12114 | 54.82472 | 36848 ft | 505 kts | 51° |
| 2026-04-23 17:19 | 22.15946 | 54.88827 | 36850 ft | 505 kts | 51° |
| 2026-04-23 17:20 | 22.19771 | 54.95185 | 36845 ft | 505 kts | 51° |
| 2026-04-23 17:21 | 22.27428 | 55.07900 | 36854 ft | 505 kts | 51° |
| 2026-04-23 17:21 | 22.33162 | 55.17440 | 36861 ft | 505 kts | 51° |
| 2026-04-23 17:22 | 22.38892 | 55.27001 | 36855 ft | 505 kts | 51° |
| 2026-04-23 17:23 | 22.44616 | 55.36565 | 36854 ft | 505 kts | 51° |
| 2026-04-23 17:24 | 22.50389 | 55.46088 | 36857 ft | 504 kts | 50° |
| 2026-04-23 17:24 | 22.56219 | 55.55560 | 36845 ft | 504 kts | 50° |
| 2026-04-23 17:25 | 22.62007 | 55.65062 | 36865 ft | 504 kts | 51° |
| 2026-04-23 17:26 | 22.69706 | 55.77744 | 36869 ft | 504 kts | 51° |
| 2026-04-23 17:27 | 22.75483 | 55.87249 | 36886 ft | 503 kts | 51° |
| 2026-04-23 17:27 | 22.79327 | 55.93588 | 36882 ft | 503 kts | 51° |
| 2026-04-23 17:28 | 22.83159 | 55.99931 | 36880 ft | 503 kts | 51° |
| 2026-04-23 17:28 | 22.86991 | 56.06272 | 36879 ft | 503 kts | 51° |
| 2026-04-23 17:29 | 22.90828 | 56.12610 | 36885 ft | 503 kts | 51° |
| 2026-04-23 17:30 | 22.96570 | 56.22135 | 36885 ft | 503 kts | 51° |
| 2026-04-23 17:30 | 23.02309 | 56.31662 | 36890 ft | 503 kts | 51° |
| 2026-04-23 17:31 | 23.06028 | 56.38092 | 36897 ft | 504 kts | 53° |
| 2026-04-23 17:31 | 23.09604 | 56.44575 | 36912 ft | 503 kts | 53° |
| 2026-04-23 17:32 | 23.13189 | 56.51104 | 36905 ft | 503 kts | 53° |
| 2026-04-23 17:32 | 23.16809 | 56.57601 | 36929 ft | 502 kts | 53° |
| 2026-04-23 17:33 | 23.20449 | 56.64079 | 36937 ft | 502 kts | 52° |
| 2026-04-23 17:33 | 23.24091 | 56.70556 | 36923 ft | 502 kts | 53° |
| 2026-04-23 17:34 | 23.27722 | 56.77039 | 36941 ft | 502 kts | 53° |
| 2026-04-23 17:35 | 23.33101 | 56.86836 | 36957 ft | 507 kts | 58° |
| 2026-04-23 17:35 | 23.35336 | 56.94173 | 36959 ft | 518 kts | 75° |
| 2026-04-23 17:35 | 23.36042 | 56.98015 | 36967 ft | 518 kts | 75° |
| 2026-04-23 17:36 | 23.37454 | 57.05702 | 36964 ft | 518 kts | 75° |
| 2026-04-23 17:36 | 23.38868 | 57.13392 | 36967 ft | 518 kts | 75° |
| 2026-04-23 17:37 | 23.40278 | 57.21084 | 36964 ft | 518 kts | 75° |
| 2026-04-23 17:38 | 23.42385 | 57.32620 | 36956 ft | 518 kts | 75° |
| 2026-04-23 17:38 | 23.43784 | 57.40310 | 36965 ft | 518 kts | 75° |
| 2026-04-23 17:39 | 23.45182 | 57.48002 | 36962 ft | 518 kts | 75° |
| 2026-04-23 17:39 | 23.46576 | 57.55695 | 36948 ft | 518 kts | 75° |
| 2026-04-23 17:40 | 23.47960 | 57.63390 | 36937 ft | 518 kts | 75° |
| 2026-04-23 17:40 | 23.49340 | 57.71084 | 36931 ft | 517 kts | 75° |
| 2026-04-23 17:41 | 23.50727 | 57.78775 | 36931 ft | 517 kts | 75° |
| 2026-04-23 17:41 | 23.52785 | 57.90303 | 36912 ft | 517 kts | 75° |
| 2026-04-23 17:42 | 23.54833 | 58.01829 | 36896 ft | 516 kts | 75° |
| 2026-04-23 17:43 | 23.56193 | 58.09497 | 36881 ft | 515 kts | 75° |
| 2026-04-23 17:43 | 23.57548 | 58.17160 | 36865 ft | 515 kts | 75° |
| 2026-04-23 17:44 | 23.58948 | 58.24803 | 36868 ft | 512 kts | 71° |
| 2026-04-23 17:44 | 23.62801 | 58.35509 | 36868 ft | 504 kts | 62° |
| 2026-04-23 17:45 | 23.66887 | 58.46079 | 36860 ft | 504 kts | 62° |
| 2026-04-23 17:46 | 23.70963 | 58.56651 | 36862 ft | 504 kts | 62° |
| 2026-04-23 17:46 | 23.73669 | 58.63694 | 36861 ft | 503 kts | 62° |
| 2026-04-23 17:47 | 23.76376 | 58.70735 | 36866 ft | 503 kts | 62° |
| 2026-04-23 17:48 | 23.80428 | 58.81298 | 36869 ft | 502 kts | 62° |
| 2026-04-23 17:48 | 23.83117 | 58.88337 | 36866 ft | 502 kts | 62° |
| 2026-04-23 17:49 | 23.85784 | 58.95327 | 36866 ft | 502 kts | 62° |
| 2026-04-23 17:49 | 23.88474 | 59.02368 | 36866 ft | 502 kts | 62° |
| 2026-04-23 17:50 | 23.91164 | 59.09406 | 36881 ft | 502 kts | 63° |
| 2026-04-23 17:50 | 23.95355 | 59.19849 | 36878 ft | 499 kts | 59° |
| 2026-04-23 17:51 | 23.98467 | 59.26614 | 36877 ft | 497 kts | 58° |
| 2026-04-23 17:52 | 24.03134 | 59.36760 | 36886 ft | 498 kts | 59° |
| 2026-04-23 17:52 | 24.07651 | 59.46969 | 36878 ft | 496 kts | 59° |
| 2026-04-23 17:53 | 24.11097 | 59.57713 | 36879 ft | 501 kts | 69° |
| 2026-04-23 17:54 | 24.12775 | 59.63827 | 36883 ft | 500 kts | 69° |
| 2026-04-23 17:54 | 24.15785 | 59.74753 | 36880 ft | 499 kts | 70° |
| 2026-04-23 17:55 | 24.18764 | 59.85660 | 36878 ft | 498 kts | 70° |
| 2026-04-23 17:56 | 24.20736 | 59.92931 | 36884 ft | 497 kts | 70° |
| 2026-04-23 17:56 | 24.23689 | 60.03803 | 36881 ft | 496 kts | 70° |
| 2026-04-23 17:57 | 24.25650 | 60.11040 | 36880 ft | 495 kts | 70° |
| 2026-04-23 17:58 | 24.28569 | 60.21838 | 36880 ft | 494 kts | 70° |
| 2026-04-23 17:58 | 24.30522 | 60.29109 | 36879 ft | 493 kts | 70° |
| 2026-04-23 17:59 | 24.32456 | 60.36270 | 36883 ft | 493 kts | 70° |
| 2026-04-23 17:59 | 24.34401 | 60.43471 | 36873 ft | 492 kts | 70° |
| 2026-04-23 18:00 | 24.36332 | 60.50676 | 36875 ft | 492 kts | 70° |
| 2026-04-23 18:00 | 24.38251 | 60.57872 | 36880 ft | 491 kts | 70° |
| 2026-04-23 18:01 | 24.40170 | 60.65067 | 36878 ft | 491 kts | 70° |
| 2026-04-23 18:01 | 24.42085 | 60.72256 | 36876 ft | 491 kts | 70° |
| 2026-04-23 18:02 | 24.43996 | 60.79448 | 36877 ft | 491 kts | 71° |
| 2026-04-23 18:02 | 24.45905 | 60.86633 | 36870 ft | 490 kts | 71° |
| 2026-04-23 18:03 | 24.47815 | 60.93815 | 36878 ft | 490 kts | 71° |
| 2026-04-23 18:03 | 24.49710 | 61.00994 | 36875 ft | 490 kts | 71° |
| 2026-04-23 18:04 | 24.51597 | 61.08178 | 36881 ft | 489 kts | 71° |
| 2026-04-23 18:04 | 24.53478 | 61.15349 | 36865 ft | 489 kts | 71° |
| 2026-04-23 18:05 | 24.55358 | 61.22515 | 36866 ft | 488 kts | 71° |
| 2026-04-23 18:05 | 24.57242 | 61.29678 | 36871 ft | 488 kts | 71° |
| 2026-04-23 18:06 | 24.59400 | 61.36710 | 36865 ft | 485 kts | 65° |
| 2026-04-23 18:06 | 24.61873 | 61.43594 | 36864 ft | 484 kts | 65° |
| 2026-04-23 18:07 | 24.64344 | 61.50480 | 36867 ft | 484 kts | 65° |
| 2026-04-23 18:07 | 24.66802 | 61.57370 | 36865 ft | 484 kts | 65° |
| 2026-04-23 18:08 | 24.68841 | 61.63093 | 36861 ft | 484 kts | 65° |
| 2026-04-23 18:08 | 24.71704 | 61.71148 | 36862 ft | 483 kts | 65° |
| 2026-04-23 18:09 | 24.74159 | 61.78034 | 36864 ft | 483 kts | 65° |
| 2026-04-23 18:09 | 24.76606 | 61.84924 | 36862 ft | 483 kts | 65° |
| 2026-04-23 18:10 | 24.79046 | 61.91818 | 36864 ft | 483 kts | 65° |
| 2026-04-23 18:10 | 24.81468 | 61.98660 | 36866 ft | 483 kts | 65° |
| 2026-04-23 18:11 | 24.83899 | 62.05542 | 36862 ft | 482 kts | 66° |
| 2026-04-23 18:11 | 24.86324 | 62.12425 | 36861 ft | 482 kts | 66° |
| 2026-04-23 18:12 | 24.88748 | 62.19307 | 36861 ft | 482 kts | 66° |
| 2026-04-23 18:12 | 24.91163 | 62.26190 | 36860 ft | 482 kts | 66° |
| 2026-04-23 18:13 | 24.93576 | 62.33078 | 36860 ft | 482 kts | 66° |
| 2026-04-23 18:13 | 24.95986 | 62.39964 | 36860 ft | 482 kts | 66° |
| 2026-04-23 18:14 | 24.98398 | 62.46850 | 36859 ft | 482 kts | 66° |
| 2026-04-23 18:14 | 25.00808 | 62.53734 | 36863 ft | 482 kts | 66° |
| 2026-04-23 18:15 | 25.03207 | 62.60626 | 36865 ft | 481 kts | 66° |
| 2026-04-23 18:15 | 25.05595 | 62.67513 | 36865 ft | 481 kts | 66° |
| 2026-04-23 18:16 | 25.07982 | 62.74403 | 36866 ft | 481 kts | 66° |
| 2026-04-23 18:16 | 25.10371 | 62.81286 | 36877 ft | 481 kts | 66° |
| 2026-04-23 18:17 | 25.13951 | 62.91622 | 36863 ft | 481 kts | 66° |
| 2026-04-23 18:17 | 25.16325 | 62.98521 | 36861 ft | 481 kts | 66° |
| 2026-04-23 18:18 | 25.18699 | 63.05419 | 36863 ft | 481 kts | 66° |
| 2026-04-23 18:18 | 25.21075 | 63.12318 | 36863 ft | 481 kts | 66° |
| 2026-04-23 18:19 | 25.23445 | 63.19219 | 36865 ft | 480 kts | 66° |
| 2026-04-23 18:19 | 25.25808 | 63.26119 | 36864 ft | 480 kts | 66° |
| 2026-04-23 18:20 | 25.29094 | 63.32417 | 36863 ft | 471 kts | 46° |
| 2026-04-23 18:20 | 25.33987 | 63.37050 | 36862 ft | 460 kts | 27° |
| 2026-04-23 18:21 | 25.39766 | 63.39990 | 36865 ft | 457 kts | 19° |
| 2026-04-23 18:21 | 25.45622 | 63.42729 | 36860 ft | 457 kts | 19° |
| 2026-04-23 18:22 | 25.51482 | 63.45481 | 36886 ft | 458 kts | 20° |
| 2026-04-23 18:22 | 25.57343 | 63.48243 | 36875 ft | 458 kts | 20° |
| 2026-04-23 18:23 | 25.66143 | 63.52373 | 36875 ft | 458 kts | 20° |
| 2026-04-23 18:24 | 25.74945 | 63.56514 | 36873 ft | 458 kts | 20° |
| 2026-04-23 18:25 | 25.83748 | 63.60669 | 36878 ft | 458 kts | 20° |
| 2026-04-23 18:25 | 25.89615 | 63.63439 | 36891 ft | 458 kts | 20° |
| 2026-04-23 18:26 | 25.95470 | 63.66250 | 36892 ft | 460 kts | 24° |
| 2026-04-23 18:26 | 26.00646 | 63.70474 | 36894 ft | 468 kts | 44° |
| 2026-04-23 18:27 | 26.04432 | 63.76388 | 36906 ft | 472 kts | 56° |
| 2026-04-23 18:27 | 26.07873 | 63.82614 | 36899 ft | 473 kts | 56° |
| 2026-04-23 18:28 | 26.11320 | 63.88846 | 36903 ft | 473 kts | 56° |
| 2026-04-23 18:28 | 26.14767 | 63.95083 | 36906 ft | 474 kts | 56° |
| 2026-04-23 18:29 | 26.18216 | 64.01334 | 36916 ft | 474 kts | 56° |
| 2026-04-23 18:29 | 26.21651 | 64.07592 | 36918 ft | 474 kts | 57° |
| 2026-04-23 18:30 | 26.25084 | 64.13858 | 36915 ft | 474 kts | 57° |
| 2026-04-23 18:30 | 26.28515 | 64.20126 | 36915 ft | 474 kts | 57° |
| 2026-04-23 18:31 | 26.31945 | 64.26396 | 36915 ft | 474 kts | 57° |
| 2026-04-23 18:31 | 26.35370 | 64.32667 | 36922 ft | 473 kts | 57° |
| 2026-04-23 18:32 | 26.38790 | 64.38940 | 36929 ft | 473 kts | 57° |
| 2026-04-23 18:32 | 26.42212 | 64.45215 | 36928 ft | 473 kts | 57° |
| 2026-04-23 18:33 | 26.45632 | 64.51498 | 36930 ft | 474 kts | 57° |
| 2026-04-23 18:33 | 26.49049 | 64.57788 | 36931 ft | 474 kts | 57° |
| 2026-04-23 18:34 | 26.52463 | 64.64086 | 36940 ft | 474 kts | 57° |
| 2026-04-23 18:34 | 26.55884 | 64.70381 | 36940 ft | 474 kts | 57° |
| 2026-04-23 18:35 | 26.59299 | 64.76682 | 36952 ft | 474 kts | 57° |
| 2026-04-23 18:35 | 26.62135 | 64.81930 | 36944 ft | 475 kts | 57° |
| 2026-04-23 18:36 | 26.65550 | 64.88255 | 36945 ft | 475 kts | 57° |
| 2026-04-23 18:36 | 26.68959 | 64.94588 | 36947 ft | 476 kts | 57° |
| 2026-04-23 18:37 | 26.72368 | 65.00932 | 36945 ft | 476 kts | 58° |
| 2026-04-23 18:37 | 26.75772 | 65.07277 | 36949 ft | 475 kts | 58° |
| 2026-04-23 18:38 | 26.79175 | 65.13608 | 36946 ft | 475 kts | 58° |
| 2026-04-23 18:38 | 26.82580 | 65.19939 | 36945 ft | 474 kts | 58° |
| 2026-04-23 18:39 | 26.85973 | 65.26273 | 36959 ft | 474 kts | 58° |
| 2026-04-23 18:39 | 26.89356 | 65.32609 | 36959 ft | 474 kts | 58° |
| 2026-04-23 18:40 | 26.92728 | 65.38943 | 36965 ft | 473 kts | 58° |
| 2026-04-23 18:40 | 26.96104 | 65.45276 | 36963 ft | 473 kts | 58° |
| 2026-04-23 18:41 | 26.99472 | 65.51606 | 36962 ft | 473 kts | 58° |
| 2026-04-23 18:41 | 27.02846 | 65.57939 | 36976 ft | 473 kts | 58° |
| 2026-04-23 18:42 | 27.06211 | 65.64277 | 36970 ft | 473 kts | 58° |
| 2026-04-23 18:42 | 27.09568 | 65.70629 | 36966 ft | 473 kts | 58° |
| 2026-04-23 18:43 | 27.12922 | 65.76987 | 36966 ft | 473 kts | 58° |
| 2026-04-23 18:43 | 27.16280 | 65.83345 | 36965 ft | 473 kts | 58° |
| 2026-04-23 18:44 | 27.19646 | 65.89701 | 36968 ft | 473 kts | 58° |
| 2026-04-23 18:44 | 27.23000 | 65.96071 | 36967 ft | 474 kts | 59° |
| 2026-04-23 18:45 | 27.26277 | 66.02501 | 36964 ft | 475 kts | 65° |
| 2026-04-23 18:45 | 27.28172 | 66.09583 | 36966 ft | 475 kts | 80° |
| 2026-04-23 18:46 | 27.29336 | 66.16896 | 36971 ft | 475 kts | 79° |
| 2026-04-23 18:46 | 27.30523 | 66.24208 | 36971 ft | 476 kts | 79° |
| 2026-04-23 18:47 | 27.31695 | 66.31530 | 36969 ft | 476 kts | 80° |
| 2026-04-23 18:47 | 27.32851 | 66.38867 | 36969 ft | 477 kts | 80° |
| 2026-04-23 18:48 | 27.34005 | 66.46217 | 36971 ft | 477 kts | 80° |
| 2026-04-23 18:48 | 27.35162 | 66.53573 | 36968 ft | 478 kts | 80° |
| 2026-04-23 18:49 | 27.36316 | 66.60936 | 36971 ft | 478 kts | 80° |
| 2026-04-23 18:49 | 27.37471 | 66.68308 | 36959 ft | 479 kts | 80° |
| 2026-04-23 18:50 | 27.38430 | 66.74446 | 36959 ft | 479 kts | 80° |
| 2026-04-23 18:50 | 27.39765 | 66.83081 | 36954 ft | 480 kts | 80° |
| 2026-04-23 18:51 | 27.40911 | 66.90478 | 36947 ft | 480 kts | 80° |
| 2026-04-23 18:51 | 27.42047 | 66.97855 | 36950 ft | 477 kts | 80° |
| 2026-04-23 18:52 | 27.43165 | 67.05197 | 36921 ft | 475 kts | 80° |
| 2026-04-23 18:52 | 27.44282 | 67.12513 | 36921 ft | 474 kts | 80° |
| 2026-04-23 18:53 | 27.45391 | 67.19772 | 36894 ft | 473 kts | 79° |
| 2026-04-23 18:53 | 27.46539 | 67.27113 | 36899 ft | 472 kts | 78° |
| 2026-04-23 18:54 | 27.47811 | 67.34357 | 36862 ft | 471 kts | 78° |
| 2026-04-23 18:54 | 27.49114 | 67.41583 | 36827 ft | 471 kts | 78° |
| 2026-04-23 18:55 | 27.50377 | 67.48810 | 36826 ft | 470 kts | 78° |
| 2026-04-23 18:55 | 27.51607 | 67.56044 | 36807 ft | 470 kts | 78° |
| 2026-04-23 18:56 | 27.52634 | 67.62056 | 36814 ft | 470 kts | 78° |
| 2026-04-23 18:56 | 27.54080 | 67.70503 | 36799 ft | 470 kts | 78° |
| 2026-04-23 18:57 | 27.55314 | 67.77732 | 36799 ft | 470 kts | 78° |
| 2026-04-23 18:57 | 27.56527 | 67.84912 | 36797 ft | 470 kts | 78° |
| 2026-04-23 18:58 | 27.57750 | 67.92142 | 36797 ft | 470 kts | 78° |
| 2026-04-23 18:58 | 27.58974 | 67.99371 | 36796 ft | 470 kts | 78° |
| 2026-04-23 18:59 | 27.60193 | 68.06604 | 36798 ft | 469 kts | 79° |
| 2026-04-23 18:59 | 27.61395 | 68.13835 | 36796 ft | 469 kts | 79° |
| 2026-04-23 19:00 | 27.62595 | 68.21069 | 36796 ft | 470 kts | 79° |
| 2026-04-23 19:00 | 27.63800 | 68.28312 | 36792 ft | 470 kts | 79° |
| 2026-04-23 19:01 | 27.65015 | 68.35564 | 36792 ft | 471 kts | 78° |
| 2026-04-23 19:01 | 27.66226 | 68.42824 | 36794 ft | 471 kts | 79° |
| 2026-04-23 19:02 | 27.67219 | 68.48862 | 36792 ft | 471 kts | 79° |
| 2026-04-23 19:02 | 27.68603 | 68.57362 | 36796 ft | 471 kts | 79° |
| 2026-04-23 19:03 | 27.69789 | 68.64636 | 36794 ft | 471 kts | 79° |
| 2026-04-23 19:03 | 27.70979 | 68.71912 | 36791 ft | 472 kts | 79° |
| 2026-04-23 19:04 | 27.72332 | 68.79145 | 36788 ft | 471 kts | 71° |
| 2026-04-23 19:04 | 27.75015 | 68.85859 | 36789 ft | 469 kts | 62° |
| 2026-04-23 19:05 | 27.77968 | 68.92438 | 36785 ft | 470 kts | 62° |
| 2026-04-23 19:05 | 27.80907 | 68.99041 | 36784 ft | 471 kts | 62° |
| 2026-04-23 19:06 | 27.83843 | 69.05659 | 36790 ft | 471 kts | 62° |
| 2026-04-23 19:06 | 27.86769 | 69.12291 | 36791 ft | 472 kts | 62° |
| 2026-04-23 19:07 | 27.89703 | 69.18929 | 36790 ft | 472 kts | 62° |
| 2026-04-23 19:07 | 27.92640 | 69.25570 | 36801 ft | 473 kts | 62° |
| 2026-04-23 19:08 | 27.95563 | 69.32238 | 36794 ft | 473 kts | 62° |
| 2026-04-23 19:08 | 27.98479 | 69.38915 | 36791 ft | 473 kts | 62° |
| 2026-04-23 19:09 | 28.01393 | 69.45590 | 36790 ft | 473 kts | 62° |
| 2026-04-23 19:09 | 28.04301 | 69.52279 | 36791 ft | 474 kts | 62° |
| 2026-04-23 19:10 | 28.07209 | 69.58972 | 36790 ft | 474 kts | 63° |
| 2026-04-23 19:10 | 28.10121 | 69.65660 | 36790 ft | 473 kts | 63° |
| 2026-04-23 19:11 | 28.13022 | 69.72352 | 36790 ft | 473 kts | 63° |
| 2026-04-23 19:11 | 28.15913 | 69.79055 | 36790 ft | 474 kts | 63° |
| 2026-04-23 19:12 | 28.18324 | 69.84627 | 36791 ft | 474 kts | 63° |
| 2026-04-23 19:12 | 28.21715 | 69.92468 | 36795 ft | 474 kts | 63° |
| 2026-04-23 19:13 | 28.24606 | 69.99187 | 36799 ft | 474 kts | 63° |
| 2026-04-23 19:13 | 28.27489 | 70.05914 | 36797 ft | 474 kts | 63° |
| 2026-04-23 19:14 | 28.30368 | 70.12642 | 36800 ft | 474 kts | 63° |
| 2026-04-23 19:14 | 28.33252 | 70.19367 | 36801 ft | 474 kts | 63° |
| 2026-04-23 19:15 | 28.36221 | 70.26038 | 36812 ft | 473 kts | 57° |
| 2026-04-23 19:15 | 28.40337 | 70.31808 | 36811 ft | 470 kts | 45° |
| 2026-04-23 19:16 | 28.44799 | 70.37250 | 36798 ft | 471 kts | 45° |
| 2026-04-23 19:16 | 28.49257 | 70.42716 | 36801 ft | 471 kts | 45° |
| 2026-04-23 19:17 | 28.55934 | 70.50914 | 36795 ft | 471 kts | 45° |
| 2026-04-23 19:17 | 28.59635 | 70.55465 | 36795 ft | 471 kts | 45° |
| 2026-04-23 19:18 | 28.64089 | 70.60942 | 36813 ft | 472 kts | 45° |
| 2026-04-23 19:18 | 28.68542 | 70.66430 | 36799 ft | 472 kts | 45° |
| 2026-04-23 19:19 | 28.75232 | 70.74676 | 36806 ft | 473 kts | 45° |
| 2026-04-23 19:20 | 28.81926 | 70.82950 | 36806 ft | 473 kts | 45° |
| 2026-04-23 19:20 | 28.86390 | 70.88476 | 36810 ft | 474 kts | 45° |
| 2026-04-23 19:21 | 28.93075 | 70.96792 | 36816 ft | 474 kts | 45° |
| 2026-04-23 19:22 | 28.97536 | 71.02332 | 36823 ft | 474 kts | 45° |
| 2026-04-23 19:22 | 29.04237 | 71.10648 | 36832 ft | 474 kts | 45° |
| 2026-04-23 19:23 | 29.08700 | 71.16212 | 36818 ft | 475 kts | 45° |
| 2026-04-23 19:24 | 29.15386 | 71.24579 | 36816 ft | 475 kts | 45° |
| 2026-04-23 19:24 | 29.22079 | 71.32957 | 36822 ft | 475 kts | 45° |
| 2026-04-23 19:25 | 29.30994 | 71.44148 | 36824 ft | 476 kts | 46° |
| 2026-04-23 19:26 | 29.37597 | 71.52642 | 36841 ft | 476 kts | 46° |
| 2026-04-23 19:27 | 29.48563 | 71.66832 | 36831 ft | 475 kts | 46° |
| 2026-04-23 19:28 | 29.57310 | 71.78126 | 36825 ft | 475 kts | 46° |
| 2026-04-23 19:29 | 29.63875 | 71.86644 | 36824 ft | 475 kts | 46° |
| 2026-04-23 19:30 | 29.70432 | 71.95179 | 36828 ft | 475 kts | 46° |
| 2026-04-23 19:31 | 29.76981 | 72.03714 | 36829 ft | 474 kts | 46° |
| 2026-04-23 19:31 | 29.81340 | 72.09404 | 36824 ft | 474 kts | 46° |
| 2026-04-23 19:32 | 29.85610 | 72.15181 | 36818 ft | 475 kts | 53° |
| 2026-04-23 19:32 | 29.88592 | 72.21974 | 36818 ft | 478 kts | 69° |
| 2026-04-23 19:33 | 29.90780 | 72.29217 | 36814 ft | 479 kts | 69° |
| 2026-04-23 19:33 | 29.94066 | 72.40098 | 36806 ft | 479 kts | 69° |
| 2026-04-23 19:34 | 29.96252 | 72.47362 | 36804 ft | 480 kts | 69° |
| 2026-04-23 19:35 | 29.99520 | 72.58271 | 36804 ft | 480 kts | 69° |
| 2026-04-23 19:35 | 30.02463 | 72.65108 | 36804 ft | 475 kts | 52° |
| 2026-04-23 19:36 | 30.06746 | 72.70874 | 36797 ft | 473 kts | 45° |
| 2026-04-23 19:36 | 30.11137 | 72.76532 | 36798 ft | 473 kts | 46° |
| 2026-04-23 19:37 | 30.15523 | 72.82207 | 36801 ft | 474 kts | 46° |
| 2026-04-23 19:37 | 30.19911 | 72.87891 | 36800 ft | 474 kts | 46° |
| 2026-04-23 19:38 | 30.24296 | 72.93578 | 36798 ft | 474 kts | 46° |
| 2026-04-23 19:38 | 30.28678 | 72.99270 | 36797 ft | 474 kts | 46° |
| 2026-04-23 19:39 | 30.33064 | 73.04975 | 36796 ft | 475 kts | 46° |
| 2026-04-23 19:39 | 30.37451 | 73.10690 | 36796 ft | 475 kts | 46° |
| 2026-04-23 19:40 | 30.41832 | 73.16414 | 36804 ft | 475 kts | 46° |
| 2026-04-23 19:40 | 30.46200 | 73.22146 | 35998 ft | 475 kts | 46° |
| 2026-04-23 19:40 | 30.48385 | 73.25017 | 35263 ft | 473 kts | 45° |
| 2026-04-23 19:41 | 30.50565 | 73.27876 | 34464 ft | 472 kts | 45° |
| 2026-04-23 19:41 | 30.52731 | 73.30718 | 33754 ft | 469 kts | 45° |
| 2026-04-23 19:41 | 30.54903 | 73.33564 | 32621 ft | 473 kts | 45° |
| 2026-04-23 19:41 | 30.57097 | 73.36436 | 31441 ft | 478 kts | 45° |
| 2026-04-23 19:42 | 30.59295 | 73.39320 | 30485 ft | 477 kts | 45° |
| 2026-04-23 19:42 | 30.61492 | 73.42207 | 29308 ft | 478 kts | 45° |
| 2026-04-23 19:42 | 30.63692 | 73.45106 | 28094 ft | 478 kts | 46° |
| 2026-04-23 19:42 | 30.65891 | 73.48009 | 26927 ft | 478 kts | 46° |
| 2026-04-23 19:43 | 30.68091 | 73.50915 | 25695 ft | 481 kts | 47° |
| 2026-04-23 19:43 | 30.70303 | 73.53839 | 24488 ft | 482 kts | 47° |
| 2026-04-23 19:43 | 30.72522 | 73.56774 | 23339 ft | 484 kts | 47° |
| 2026-04-23 19:43 | 30.74744 | 73.59713 | 21992 ft | 484 kts | 47° |
| 2026-04-23 19:44 | 30.76963 | 73.62646 | 20877 ft | 480 kts | 47° |
| 2026-04-23 19:44 | 30.79157 | 73.65546 | 19879 ft | 474 kts | 47° |
| 2026-04-23 19:44 | 30.81318 | 73.68405 | 18995 ft | 466 kts | 47° |
| 2026-04-23 19:44 | 30.83450 | 73.71230 | 18001 ft | 462 kts | 47° |
| 2026-04-23 19:45 | 30.85542 | 73.74004 | 17053 ft | 452 kts | 47° |
| 2026-04-23 19:45 | 30.87591 | 73.76727 | 15916 ft | 442 kts | 47° |
| 2026-04-23 19:45 | 30.89588 | 73.79382 | 14959 ft | 429 kts | 48° |
| 2026-04-23 19:45 | 30.91499 | 73.81922 | 14097 ft | 417 kts | 48° |
| 2026-04-23 19:46 | 30.93381 | 73.84423 | 13254 ft | 405 kts | 48° |
| 2026-04-23 19:46 | 30.95237 | 73.86889 | 12443 ft | 394 kts | 47° |
| 2026-04-23 19:46 | 30.97044 | 73.89292 | 11695 ft | 393 kts | 47° |
| 2026-04-23 19:46 | 30.98831 | 73.91672 | 11050 ft | 385 kts | 47° |
| 2026-04-23 19:47 | 30.99975 | 73.93198 | 10946 ft | 370 kts | 47° |
| 2026-04-23 19:47 | 31.02153 | 73.96108 | 10779 ft | 342 kts | 47° |
| 2026-04-23 19:47 | 31.03676 | 73.98145 | 10667 ft | 324 kts | 47° |
| 2026-04-23 19:47 | 31.05123 | 74.00079 | 10513 ft | 310 kts | 47° |
| 2026-04-23 19:48 | 31.06529 | 74.01952 | 10253 ft | 304 kts | 46° |
| 2026-04-23 19:48 | 31.07916 | 74.03799 | 10025 ft | 302 kts | 46° |
| 2026-04-23 19:48 | 31.09294 | 74.05639 | 9792 ft | 300 kts | 46° |
| 2026-04-23 19:48 | 31.10663 | 74.07470 | 9640 ft | 299 kts | 46° |
| 2026-04-23 19:49 | 31.12031 | 74.09303 | 9522 ft | 299 kts | 46° |
| 2026-04-23 19:49 | 31.13399 | 74.11132 | 9394 ft | 299 kts | 46° |
| 2026-04-23 19:49 | 31.14767 | 74.12956 | 9272 ft | 298 kts | 46° |
| 2026-04-23 19:49 | 31.16137 | 74.14787 | 8897 ft | 301 kts | 46° |
| 2026-04-23 19:50 | 31.17509 | 74.16629 | 8465 ft | 299 kts | 46° |
| 2026-04-23 19:50 | 31.18862 | 74.18449 | 8026 ft | 297 kts | 46° |
| 2026-04-23 19:50 | 31.20214 | 74.20268 | 7588 ft | 295 kts | 46° |
| 2026-04-23 19:50 | 31.21558 | 74.22074 | 7159 ft | 294 kts | 46° |
| 2026-04-23 19:51 | 31.22890 | 74.23865 | 6660 ft | 291 kts | 46° |
| 2026-04-23 19:51 | 31.24215 | 74.25644 | 6131 ft | 289 kts | 45° |
| 2026-04-23 19:51 | 31.25532 | 74.27411 | 5604 ft | 287 kts | 46° |
| 2026-04-23 19:51 | 31.26832 | 74.29160 | 4944 ft | 285 kts | 46° |
| 2026-04-23 19:52 | 31.27692 | 74.30319 | 4601 ft | 281 kts | 46° |
| 2026-04-23 19:52 | 31.29353 | 74.32566 | 4194 ft | 266 kts | 46° |
| 2026-04-23 19:52 | 31.30533 | 74.34164 | 4109 ft | 252 kts | 46° |
| 2026-04-23 19:52 | 31.31644 | 74.35670 | 4051 ft | 237 kts | 46° |
| 2026-04-23 19:53 | 31.32681 | 74.37071 | 4034 ft | 218 kts | 46° |
| 2026-04-23 19:53 | 31.33638 | 74.38365 | 3951 ft | 204 kts | 45° |
| 2026-04-23 19:53 | 31.34661 | 74.39465 | 3869 ft | 197 kts | 26° |
| 2026-04-23 19:53 | 31.35923 | 74.39972 | 3714 ft | 191 kts | 4° |
| 2026-04-23 19:54 | 31.37231 | 74.40007 | 3428 ft | 187 kts | 358° |
| 2026-04-23 19:54 | 31.38527 | 74.40021 | 3084 ft | 185 kts | 359° |
| 2026-04-23 19:54 | 31.39801 | 74.40042 | 2801 ft | 180 kts | 359° |
| 2026-04-23 19:54 | 31.41024 | 74.40063 | 2568 ft | 170 kts | 359° |
| 2026-04-23 19:55 | 31.42161 | 74.40084 | 2350 ft | 157 kts | 358° |
| 2026-04-23 19:55 | 31.43210 | 74.40103 | 2178 ft | 144 kts | 358° |
| 2026-04-23 19:55 | 31.44185 | 74.40120 | 1991 ft | 138 kts | 359° |
| 2026-04-23 19:55 | 31.45135 | 74.40137 | 1817 ft | 136 kts | 359° |
| 2026-04-23 19:56 | 31.46062 | 74.40153 | 1653 ft | 131 kts | 359° |
| 2026-04-23 19:56 | 31.46968 | 74.40170 | 1481 ft | 130 kts | 359° |
| 2026-04-23 19:56 | 31.47878 | 74.40195 | 1269 ft | 133 kts | 360° |
| 2026-04-23 19:56 | 31.48882 | 74.40209 | 1972 ft | 148 kts | 359° |
| 2026-04-23 19:57 | 31.49958 | 74.40240 | 2729 ft | 163 kts | 359° |
| 2026-04-23 19:57 | 31.51174 | 74.40238 | 2946 ft | 187 kts | 354° |
| 2026-04-23 19:57 | 31.52011 | 74.39931 | 3068 ft | 194 kts | 330° |
| 2026-04-23 19:57 | 31.53513 | 74.38667 | 3663 ft | 203 kts | 322° |
| 2026-04-23 19:58 | 31.54664 | 74.37618 | 4147 ft | 219 kts | 322° |
| 2026-04-23 19:58 | 31.55864 | 74.36430 | 4639 ft | 231 kts | 310° |
| 2026-04-23 19:58 | 31.56589 | 74.34721 | 4814 ft | 239 kts | 282° |
| 2026-04-23 19:58 | 31.56722 | 74.32828 | 4793 ft | 237 kts | 273° |
| 2026-04-23 19:59 | 31.56748 | 74.30899 | 4786 ft | 237 kts | 272° |
| 2026-04-23 19:59 | 31.56759 | 74.28970 | 4784 ft | 237 kts | 272° |
| 2026-04-23 19:59 | 31.56767 | 74.27036 | 4783 ft | 237 kts | 272° |
| 2026-04-23 19:59 | 31.56607 | 74.25129 | 4780 ft | 236 kts | 252° |
| 2026-04-23 20:00 | 31.55683 | 74.23560 | 4779 ft | 239 kts | 221° |
| 2026-04-23 20:00 | 31.54158 | 74.22773 | 4778 ft | 245 kts | 190° |
| 2026-04-23 20:00 | 31.53006 | 74.22655 | 4782 ft | 247 kts | 184° |
| 2026-04-23 20:00 | 31.51285 | 74.22612 | 4781 ft | 248 kts | 182° |
| 2026-04-23 20:01 | 31.49561 | 74.22596 | 4783 ft | 248 kts | 182° |
| 2026-04-23 20:01 | 31.47839 | 74.22585 | 4782 ft | 247 kts | 182° |
| 2026-04-23 20:01 | 31.46114 | 74.22577 | 4690 ft | 250 kts | 182° |
| 2026-04-23 20:01 | 31.44363 | 74.22565 | 4458 ft | 251 kts | 182° |
| 2026-04-23 20:02 | 31.42615 | 74.22549 | 4315 ft | 252 kts | 182° |
| 2026-04-23 20:02 | 31.40864 | 74.22532 | 4165 ft | 251 kts | 182° |
| 2026-04-23 20:02 | 31.39115 | 74.22512 | 4031 ft | 251 kts | 182° |
| 2026-04-23 20:02 | 31.37367 | 74.22487 | 3896 ft | 251 kts | 182° |
| 2026-04-23 20:03 | 31.35643 | 74.22706 | 3785 ft | 251 kts | 160° |
| 2026-04-23 20:03 | 31.34220 | 74.23856 | 3768 ft | 253 kts | 129° |
| 2026-04-23 20:03 | 31.33466 | 74.25662 | 3621 ft | 243 kts | 98° |
| 2026-04-23 20:03 | 31.33463 | 74.27566 | 3475 ft | 229 kts | 79° |
| 2026-04-23 20:04 | 31.33670 | 74.29395 | 3339 ft | 226 kts | 79° |
| 2026-04-23 20:04 | 31.33871 | 74.31211 | 3222 ft | 225 kts | 79° |
| 2026-04-23 20:04 | 31.34069 | 74.33022 | 3078 ft | 225 kts | 79° |
| 2026-04-23 20:04 | 31.34268 | 74.34833 | 2936 ft | 224 kts | 79° |
| 2026-04-23 20:05 | 31.34466 | 74.36635 | 2843 ft | 223 kts | 79° |
| 2026-04-23 20:05 | 31.34747 | 74.38403 | 2769 ft | 218 kts | 64° |
| 2026-04-23 20:05 | 31.35696 | 74.39691 | 2777 ft | 208 kts | 26° |
| 2026-04-23 20:05 | 31.37059 | 74.40043 | 2780 ft | 199 kts | 354° |
| 2026-04-23 20:06 | 31.38376 | 74.40007 | 2765 ft | 181 kts | 5° |
| 2026-04-23 20:06 | 31.39551 | 74.40161 | 2737 ft | 160 kts | 1° |
| 2026-04-23 20:06 | 31.40611 | 74.40222 | 2574 ft | 146 kts | 359° |
| 2026-04-23 20:06 | 31.41602 | 74.40256 | 2407 ft | 140 kts | 359° |
| 2026-04-23 20:07 | 31.42569 | 74.40280 | 2236 ft | 138 kts | 359° |
| 2026-04-23 20:07 | 31.43527 | 74.40300 | 2062 ft | 137 kts | 359° |
| 2026-04-23 20:07 | 31.44482 | 74.40319 | 1890 ft | 137 kts | 358° |
| 2026-04-23 20:07 | 31.45434 | 74.40337 | 1723 ft | 137 kts | 358° |
| 2026-04-23 20:08 | 31.46386 | 74.40357 | 1534 ft | 137 kts | 359° |
| 2026-04-23 20:08 | 31.47344 | 74.40379 | 1410 ft | 138 kts | 359° |
| 2026-04-23 20:08 | 31.48316 | 74.40409 | 1182 ft | 142 kts | 359° |
| 2026-04-23 20:08 | 31.49299 | 74.40411 | 1038 ft | 142 kts | 359° |
| 2026-04-23 20:09 | 31.50297 | 74.40427 | 871 ft | 143 kts | 360° |
| 2026-04-23 20:09 | 31.51282 | 74.40440 | 733 ft | 134 kts | 360° |
| 2026-04-23 20:09 | 31.52061 | 74.40447 | 725 ft | 76 kts | 1° |
| 2026-04-23 20:09 | 31.52348 | 74.40456 | 725 ft | 28 kts | 2° |
| 2026-04-23 20:10 | 31.52548 | 74.40466 | 723 ft | 29 kts | 2° |
| 2026-04-23 20:10 | 31.52736 | 74.40473 | 725 ft | 18 kts | 1° |
| 2026-04-23 20:10 | 31.52809 | 74.40515 | 727 ft | 13 kts | 74° |
| 2026-04-23 20:10 | 31.52803 | 74.40616 | 724 ft | 13 kts | 92° |
| 2026-04-23 20:11 | 31.52750 | 74.40678 | 724 ft | 13 kts | 175° |
| 2026-04-23 20:11 | 31.52651 | 74.40675 | 725 ft | 16 kts | 182° |
| 2026-04-23 20:11 | 31.52528 | 74.40671 | 725 ft | 18 kts | 181° |
| 2026-04-23 20:11 | 31.52427 | 74.40679 | 725 ft | 14 kts | 153° |
| 2026-04-23 20:12 | 31.52407 | 74.40789 | 726 ft | 15 kts | 95° |
| 2026-04-23 20:12 | 31.52333 | 74.40843 | 724 ft | 15 kts | 180° |
| 2026-04-23 20:12 | 31.52219 | 74.40838 | 724 ft | 18 kts | 180° |
| 2026-04-23 20:12 | 31.52115 | 74.40840 | 723 ft | 4 kts | 168° |
| 2026-04-23 20:13 | 31.52108 | 74.40877 | 723 ft | 8 kts | 94° |
| 2026-04-23 20:13 | 31.52107 | 74.40937 | 723 ft | 3 kts | 90° |
| 2026-04-23 20:13 | 31.52107 | 74.40948 | 723 ft | 0 kts | 90° |